createdAt,value
2022-08-28T00:03:57.228Z,22.18
2022-08-28T00:09:02.794Z,22.09
2022-08-28T00:14:10.799Z,22.13
2022-08-28T00:19:18.843Z,22.09
2022-08-28T00:24:24.605Z,22.11
2022-08-28T00:29:30.373Z,22.03
2022-08-28T00:34:36.252Z,21.99
2022-08-28T00:39:41.806Z,21.97
2022-08-28T00:44:47.481Z,21.90
2022-08-28T00:49:56.326Z,21.84
2022-08-28T00:55:08.711Z,21.83
2022-08-28T01:00:17.458Z,21.73
2022-08-28T01:05:24.077Z,21.70
2022-08-28T01:10:33.023Z,21.68
2022-08-28T01:15:41.767Z,21.65
2022-08-28T01:20:53.577Z,21.73
2022-08-28T01:26:00.446Z,21.72
2022-08-28T01:31:07.163Z,21.68
2022-08-28T01:36:13.868Z,21.65
2022-08-28T01:41:19.816Z,21.62
2022-08-28T01:46:25.361Z,21.60
2022-08-28T01:51:35.071Z,21.64
2022-08-28T01:56:38.632Z,21.63
2022-08-28T02:01:45.245Z,21.68
2022-08-28T02:06:51.022Z,21.64
2022-08-28T02:11:57.520Z,21.59
2022-08-28T02:17:04.410Z,21.61
2022-08-28T02:22:09.879Z,21.64
2022-08-28T02:27:15.439Z,21.63
2022-08-28T02:32:21.098Z,21.63
2022-08-28T02:37:26.662Z,21.60
2022-08-28T02:42:32.139Z,21.58
2022-08-28T02:47:37.935Z,21.57
2022-08-28T02:52:44.279Z,21.59
2022-08-28T02:57:50.474Z,21.61
2022-08-28T03:02:56.239Z,21.62
2022-08-28T03:08:01.893Z,21.64
2022-08-28T03:13:07.524Z,21.52
2022-08-28T03:18:15.158Z,21.41
2022-08-28T03:23:27.168Z,21.50
2022-08-28T03:28:35.809Z,21.52
2022-08-28T03:33:43.015Z,21.42
2022-08-28T03:38:49.721Z,21.49
2022-08-28T03:43:55.285Z,21.54
2022-08-28T03:49:02.721Z,21.41
2022-08-28T03:54:08.280Z,21.28
2022-08-28T03:59:13.832Z,21.27
2022-08-28T04:04:19.452Z,21.20
2022-08-28T04:09:24.951Z,21.24
2022-08-28T04:14:30.518Z,21.29
2022-08-28T04:19:36.422Z,21.19
2022-08-28T04:24:44.100Z,21.25
2022-08-28T04:29:50.176Z,21.35
2022-08-28T04:34:55.748Z,21.29
2022-08-28T04:40:01.339Z,21.25
2022-08-28T04:45:07.838Z,21.32
2022-08-28T04:50:13.669Z,21.37
2022-08-28T04:55:27.847Z,21.27
2022-08-28T05:00:26.840Z,21.30
2022-08-28T05:05:32.407Z,21.33
2022-08-28T05:10:38.480Z,21.35
2022-08-28T05:15:46.721Z,21.38
2022-08-28T05:20:52.890Z,21.32
2022-08-28T05:25:58.661Z,21.22
2022-08-28T05:31:12.335Z,21.22
2022-08-28T05:36:19.787Z,21.27
2022-08-28T05:41:29.963Z,21.19
2022-08-28T05:46:37.650Z,21.15
2022-08-28T05:51:44.083Z,21.23
2022-08-28T05:56:49.831Z,21.22
2022-08-28T06:01:55.416Z,21.09
2022-08-28T06:07:01.119Z,21.05
2022-08-28T06:12:06.971Z,21.08
2022-08-28T06:17:13.253Z,21.02
2022-08-28T06:22:19.153Z,20.85
2022-08-28T06:27:24.794Z,20.79
2022-08-28T06:32:30.457Z,20.82
2022-08-28T06:37:36.079Z,20.84
2022-08-28T06:42:41.595Z,20.83
2022-08-28T06:47:49.353Z,20.78
2022-08-28T06:52:57.119Z,20.77
2022-08-28T06:58:03.044Z,20.82
2022-08-28T07:03:08.618Z,20.79
2022-08-28T07:08:14.417Z,20.76
2022-08-28T07:13:20.706Z,20.66
2022-08-28T07:18:26.368Z,20.65
2022-08-28T07:23:34.364Z,20.63
2022-08-28T07:28:40.478Z,20.67
2022-08-28T07:33:46.343Z,20.61
2022-08-28T07:38:54.063Z,20.67
2022-08-28T07:44:18.668Z,20.72
2022-08-28T07:49:25.695Z,20.72
2022-08-28T07:54:31.292Z,20.70
2022-08-28T07:59:38.236Z,20.64
2022-08-28T08:04:45.033Z,20.70
2022-08-28T08:09:50.613Z,20.78
2022-08-28T08:14:56.475Z,20.72
2022-08-28T08:20:02.102Z,20.80
2022-08-28T08:25:08.513Z,20.90
2022-08-28T08:30:14.284Z,20.93
2022-08-28T08:35:19.966Z,20.95
2022-08-28T08:40:25.595Z,21.02
2022-08-28T08:45:32.862Z,20.99
2022-08-28T08:50:38.981Z,21.10
2022-08-28T08:55:53.919Z,21.07
2022-08-28T09:01:36.281Z,21.20
2022-08-28T09:07:00.403Z,21.32
2022-08-28T09:12:09.502Z,21.20
2022-08-28T09:17:18.154Z,21.30
2022-08-28T09:22:23.972Z,21.37
2022-08-28T09:27:33.423Z,21.40
2022-08-28T09:32:44.361Z,21.57
2022-08-28T09:37:50.145Z,21.62
2022-08-28T09:43:22.375Z,21.64
2022-08-28T09:48:40.043Z,21.75
2022-08-28T09:53:57.800Z,21.79
2022-08-28T09:59:12.556Z,21.83
2022-08-28T10:04:44.664Z,21.94
2022-08-28T10:10:06.456Z,21.96
2022-08-28T10:15:30.859Z,21.98
2022-08-28T10:20:51.968Z,22.18
2022-08-28T10:26:18.789Z,22.38
2022-08-28T10:31:36.536Z,22.58
2022-08-28T10:36:45.482Z,22.77
2022-08-28T10:41:57.535Z,22.78
2022-08-28T10:47:05.425Z,22.66
2022-08-28T10:52:19.890Z,22.68
2022-08-28T10:57:29.556Z,22.79
2022-08-28T11:02:36.913Z,22.72
2022-08-28T11:07:45.596Z,22.92
2022-08-28T11:12:53.546Z,23.12
2022-08-28T11:18:18.023Z,23.09
2022-08-28T11:23:29.419Z,23.10
2022-08-28T11:28:44.812Z,23.31
2022-08-28T11:33:53.074Z,23.59
2022-08-28T11:39:01.877Z,23.50
2022-08-28T11:44:13.600Z,23.79
2022-08-28T11:49:36.973Z,23.90
2022-08-28T11:55:17.194Z,24.35
2022-08-28T12:00:31.526Z,24.64
2022-08-28T12:05:44.313Z,24.66
2022-08-28T12:10:55.753Z,24.79
2022-08-28T12:16:07.338Z,24.73
2022-08-28T12:21:21.941Z,24.60
2022-08-28T12:26:35.294Z,24.59
2022-08-28T12:32:04.298Z,24.57
2022-08-28T12:37:28.095Z,25.05
2022-08-28T12:42:36.657Z,25.10
2022-08-28T12:47:44.857Z,24.96
2022-08-28T12:52:53.057Z,25.53
2022-08-28T12:57:58.955Z,25.41
2022-08-28T13:03:06.621Z,25.33
2022-08-28T13:08:13.633Z,25.42
2022-08-28T13:13:40.231Z,25.74
2022-08-28T13:18:55.430Z,25.77
2022-08-28T13:24:01.564Z,25.70
2022-08-28T13:29:10.326Z,25.56
2022-08-28T13:34:27.982Z,25.41
2022-08-28T13:39:35.341Z,25.57
2022-08-28T13:44:49.471Z,25.61
2022-08-28T13:49:55.023Z,25.51
2022-08-28T13:55:01.088Z,25.59
2022-08-28T14:00:07.961Z,25.53
2022-08-28T14:05:13.824Z,25.46
2022-08-28T14:10:19.534Z,25.59
2022-08-28T14:15:25.202Z,25.42
2022-08-28T14:20:31.172Z,25.30
2022-08-28T14:25:39.304Z,25.46
2022-08-28T14:30:47.330Z,25.46
2022-08-28T14:35:53.089Z,25.28
2022-08-28T14:40:58.791Z,25.29
2022-08-28T14:46:08.349Z,25.23
2022-08-28T14:51:11.935Z,25.08
2022-08-28T14:56:17.495Z,25.28
2022-08-28T15:01:39.757Z,25.24
2022-08-28T15:06:37.017Z,25.24
2022-08-28T15:11:43.818Z,25.21
2022-08-28T15:16:50.515Z,25.13
2022-08-28T15:21:57.470Z,25.03
2022-08-28T15:27:03.665Z,25.00
2022-08-28T15:32:09.150Z,24.98
2022-08-28T15:37:14.821Z,24.91
2022-08-28T15:42:20.375Z,24.92
2022-08-28T15:47:26.349Z,24.91
2022-08-28T15:52:32.430Z,25.04
2022-08-28T15:57:38.556Z,24.96
2022-08-28T16:02:46.949Z,24.91
2022-08-28T16:07:52.855Z,24.96
2022-08-28T16:12:58.683Z,24.93
2022-08-28T16:18:05.962Z,25.10
2022-08-28T16:23:13.525Z,25.35
2022-08-28T16:28:19.475Z,25.68
2022-08-28T16:33:27.130Z,25.33
2022-08-28T16:38:32.749Z,25.04
2022-08-28T16:43:38.713Z,25.23
2022-08-28T16:48:45.198Z,24.87
2022-08-28T16:53:50.773Z,24.71
2022-08-28T16:58:58.588Z,24.48
2022-08-28T17:04:05.510Z,24.25
2022-08-28T17:09:11.564Z,24.37
2022-08-28T17:14:18.459Z,24.26
2022-08-28T17:19:24.947Z,23.91
2022-08-28T17:24:31.227Z,23.75
2022-08-28T17:29:39.246Z,23.61
2022-08-28T17:34:44.924Z,23.59
2022-08-28T17:39:50.586Z,23.41
2022-08-28T17:44:56.151Z,23.34
2022-08-28T17:50:02.804Z,23.23
2022-08-28T17:55:10.042Z,22.99
2022-08-28T18:00:17.163Z,22.99
2022-08-28T18:05:23.226Z,22.93
2022-08-28T18:10:31.448Z,22.64
2022-08-28T18:15:37.391Z,22.44
2022-08-28T18:20:44.107Z,22.32
2022-08-28T18:25:51.306Z,22.21
2022-08-28T18:30:57.032Z,22.02
2022-08-28T18:36:02.778Z,21.90
2022-08-28T18:41:09.017Z,21.76
2022-08-28T18:46:14.737Z,21.60
2022-08-28T18:51:24.569Z,21.53
2022-08-28T18:56:32.526Z,21.38
2022-08-28T19:01:39.796Z,21.27
2022-08-28T19:06:46.394Z,21.22
2022-08-28T19:11:52.551Z,21.19
2022-08-28T19:16:58.522Z,21.11
2022-08-28T19:22:04.091Z,20.95
2022-08-28T19:27:10.745Z,20.87
2022-08-28T19:32:16.243Z,20.76
2022-08-28T19:37:21.807Z,20.65
2022-08-28T19:42:28.574Z,20.54
2022-08-28T19:47:35.653Z,20.47
2022-08-28T19:52:43.113Z,20.40
2022-08-28T19:57:49.409Z,20.31
2022-08-28T20:02:58.058Z,20.23
2022-08-28T20:08:04.284Z,20.14
2022-08-28T20:13:10.061Z,20.03
2022-08-28T20:18:16.359Z,19.97
2022-08-28T20:23:22.117Z,19.90
2022-08-28T20:28:27.563Z,19.82
2022-08-28T20:33:33.437Z,19.71
2022-08-28T20:38:39.902Z,19.63
2022-08-28T20:43:46.751Z,19.54
2022-08-28T20:48:52.200Z,19.46
2022-08-28T20:53:57.769Z,19.42
2022-08-28T20:59:03.246Z,19.33
2022-08-28T21:04:09.196Z,19.30
2022-08-28T21:09:15.857Z,19.25
2022-08-28T21:14:21.563Z,19.19
2022-08-28T21:19:29.247Z,19.13
2022-08-28T21:24:34.453Z,19.06
2022-08-28T21:29:39.997Z,18.97
2022-08-28T21:34:45.561Z,18.89
2022-08-28T21:39:51.130Z,18.84
2022-08-28T21:44:56.734Z,18.78
2022-08-28T21:50:02.363Z,18.73
2022-08-28T21:55:11.550Z,18.64
2022-08-28T22:00:22.970Z,18.62
2022-08-28T22:05:28.892Z,18.62
2022-08-28T22:10:38.631Z,18.60
2022-08-28T22:15:44.724Z,18.54
2022-08-28T22:21:08.614Z,18.54
2022-08-28T22:26:17.589Z,18.49
2022-08-28T22:31:23.803Z,18.45
2022-08-28T22:36:29.518Z,18.39
2022-08-28T22:41:36.826Z,18.34
2022-08-28T22:46:42.290Z,18.27
2022-08-28T22:51:48.262Z,18.23
2022-08-28T22:56:53.725Z,18.17
2022-08-28T23:01:59.907Z,18.10
2022-08-28T23:07:06.280Z,18.07
2022-08-28T23:12:11.754Z,17.99
2022-08-28T23:17:18.723Z,17.96
2022-08-28T23:22:24.811Z,17.90
2022-08-28T23:27:38.216Z,17.85
2022-08-28T23:32:38.404Z,17.79
2022-08-28T23:37:48.916Z,17.77
2022-08-28T23:42:54.555Z,17.74
2022-08-28T23:48:00.930Z,17.72
2022-08-28T23:53:06.598Z,17.71
2022-08-28T23:58:13.756Z,17.71
